sensor_id;sensor_type;location;lat;lon;timestamp;temperature;humidity
10129;DHT22;5104;50.720;7.044;2023-11-19T00:00:30;11.70;99.90
10129;DHT22;5104;50.720;7.044;2023-11-19T00:02:57;11.70;99.90
10129;DHT22;5104;50.720;7.044;2023-11-19T00:05:24;11.70;99.90
10129;DHT22;5104;50.720;7.044;2023-11-19T00:07:51;11.70;99.90
10129;DHT22;5104;50.720;7.044;2023-11-19T00:10:19;11.70;99.90
10129;DHT22;5104;50.720;7.044;2023-11-19T00:12:47;11.60;99.90
10129;DHT22;5104;50.720;7.044;2023-11-19T00:15:14;11.60;99.90
10129;DHT22;5104;50.720;7.044;2023-11-19T00:17:42;11.60;99.90
10129;DHT22;5104;50.720;7.044;2023-11-19T00:20:11;11.60;99.90
10129;DHT22;5104;50.720;7.044;2023-11-19T00:22:38;11.60;99.90
10129;DHT22;5104;50.720;7.044;2023-11-19T00:25:06;11.60;99.90
10129;DHT22;5104;50.720;7.044;2023-11-19T00:27:33;11.60;99.90
10129;DHT22;5104;50.720;7.044;2023-11-19T00:30:00;11.60;99.90
10129;DHT22;5104;50.720;7.044;2023-11-19T00:32:31;11.60;99.90
10129;DHT22;5104;50.720;7.044;2023-11-19T00:34:59;11.60;99.90
10129;DHT22;5104;50.720;7.044;2023-11-19T00:37:26;11.60;99.90
10129;DHT22;5104;50.720;7.044;2023-11-19T00:39:53;11.60;99.90
10129;DHT22;5104;50.720;7.044;2023-11-19T00:42:21;11.60;99.90
10129;DHT22;5104;50.720;7.044;2023-11-19T00:44:49;11.60;99.90
10129;DHT22;5104;50.720;7.044;2023-11-19T00:47:16;11.60;99.90
10129;DHT22;5104;50.720;7.044;2023-11-19T00:49:46;11.50;99.90
10129;DHT22;5104;50.720;7.044;2023-11-19T00:52:15;11.50;99.90
10129;DHT22;5104;50.720;7.044;2023-11-19T00:54:42;11.50;99.90
10129;DHT22;5104;50.720;7.044;2023-11-19T00:57:09;11.50;99.90
10129;DHT22;5104;50.720;7.044;2023-11-19T00:59:36;11.50;99.90
10129;DHT22;5104;50.720;7.044;2023-11-19T01:02:03;11.50;99.90
10129;DHT22;5104;50.720;7.044;2023-11-19T01:04:33;11.60;99.90
10129;DHT22;5104;50.720;7.044;2023-11-19T01:07:01;11.60;99.90
10129;DHT22;5104;50.720;7.044;2023-11-19T01:09:32;11.60;99.90
10129;DHT22;5104;50.720;7.044;2023-11-19T01:12:01;11.60;99.90
10129;DHT22;5104;50.720;7.044;2023-11-19T01:14:28;11.60;99.90
10129;DHT22;5104;50.720;7.044;2023-11-19T01:16:56;11.60;99.90
10129;DHT22;5104;50.720;7.044;2023-11-19T01:19:23;11.60;99.90
10129;DHT22;5104;50.720;7.044;2023-11-19T01:21:50;11.60;99.90
10129;DHT22;5104;50.720;7.044;2023-11-19T01:24:17;11.70;99.90
10129;DHT22;5104;50.720;7.044;2023-11-19T01:26:46;11.70;99.90
10129;DHT22;5104;50.720;7.044;2023-11-19T01:29:13;11.70;99.90
10129;DHT22;5104;50.720;7.044;2023-11-19T01:31:41;11.70;99.90
10129;DHT22;5104;50.720;7.044;2023-11-19T01:34:09;11.70;99.90
10129;DHT22;5104;50.720;7.044;2023-11-19T01:36:37;11.70;99.90
10129;DHT22;5104;50.720;7.044;2023-11-19T01:39:04;11.70;99.90
10129;DHT22;5104;50.720;7.044;2023-11-19T01:41:34;11.70;99.90
10129;DHT22;5104;50.720;7.044;2023-11-19T01:44:06;11.70;99.90
10129;DHT22;5104;50.720;7.044;2023-11-19T01:46:33;11.70;99.90
10129;DHT22;5104;50.720;7.044;2023-11-19T01:49:02;11.70;99.90
10129;DHT22;5104;50.720;7.044;2023-11-19T01:51:29;11.70;99.90
10129;DHT22;5104;50.720;7.044;2023-11-19T01:53:57;11.80;99.90
10129;DHT22;5104;50.720;7.044;2023-11-19T01:56:26;11.80;99.90
10129;DHT22;5104;50.720;7.044;2023-11-19T01:58:54;11.80;99.90
10129;DHT22;5104;50.720;7.044;2023-11-19T02:01:23;11.80;99.90
10129;DHT22;5104;50.720;7.044;2023-11-19T02:03:50;11.80;99.90
10129;DHT22;5104;50.720;7.044;2023-11-19T02:06:18;11.80;99.90
10129;DHT22;5104;50.720;7.044;2023-11-19T02:08:45;11.80;99.90
10129;DHT22;5104;50.720;7.044;2023-11-19T02:11:12;11.80;99.90
10129;DHT22;5104;50.720;7.044;2023-11-19T02:13:38;11.80;99.90
10129;DHT22;5104;50.720;7.044;2023-11-19T02:16:07;11.90;99.90
10129;DHT22;5104;50.720;7.044;2023-11-19T02:18:36;11.90;99.90
10129;DHT22;5104;50.720;7.044;2023-11-19T02:21:03;11.90;99.90
10129;DHT22;5104;50.720;7.044;2023-11-19T02:23:31;12.00;99.90
10129;DHT22;5104;50.720;7.044;2023-11-19T02:26:03;11.90;99.90
10129;DHT22;5104;50.720;7.044;2023-11-19T02:28:34;11.90;99.90
10129;DHT22;5104;50.720;7.044;2023-11-19T02:31:02;11.80;99.90
10129;DHT22;5104;50.720;7.044;2023-11-19T02:33:30;11.70;99.90
10129;DHT22;5104;50.720;7.044;2023-11-19T02:35:57;11.60;99.90
10129;DHT22;5104;50.720;7.044;2023-11-19T02:38:24;11.50;99.90
10129;DHT22;5104;50.720;7.044;2023-11-19T02:40:51;11.50;99.90
10129;DHT22;5104;50.720;7.044;2023-11-19T02:43:18;11.40;99.90
10129;DHT22;5104;50.720;7.044;2023-11-19T02:45:46;11.40;99.90
10129;DHT22;5104;50.720;7.044;2023-11-19T02:48:13;11.50;99.90
10129;DHT22;5104;50.720;7.044;2023-11-19T02:50:41;11.50;99.90
10129;DHT22;5104;50.720;7.044;2023-11-19T02:53:08;11.50;99.90
10129;DHT22;5104;50.720;7.044;2023-11-19T02:55:36;11.60;99.90
10129;DHT22;5104;50.720;7.044;2023-11-19T02:58:06;11.60;99.90
10129;DHT22;5104;50.720;7.044;2023-11-19T03:00:47;11.60;99.90
10129;DHT22;5104;50.720;7.044;2023-11-19T03:03:18;11.60;99.90
10129;DHT22;5104;50.720;7.044;2023-11-19T03:05:46;11.50;99.90
10129;DHT22;5104;50.720;7.044;2023-11-19T03:08:14;11.50;99.90
10129;DHT22;5104;50.720;7.044;2023-11-19T03:10:41;11.50;99.90
10129;DHT22;5104;50.720;7.044;2023-11-19T03:13:11;11.40;99.90
10129;DHT22;5104;50.720;7.044;2023-11-19T03:15:39;11.40;99.90
10129;DHT22;5104;50.720;7.044;2023-11-19T03:18:08;11.40;99.90
10129;DHT22;5104;50.720;7.044;2023-11-19T03:20:35;11.40;99.90
10129;DHT22;5104;50.720;7.044;2023-11-19T03:23:02;11.40;99.90
10129;DHT22;5104;50.720;7.044;2023-11-19T03:25:29;11.40;99.90
10129;DHT22;5104;50.720;7.044;2023-11-19T03:27:59;11.40;99.90
10129;DHT22;5104;50.720;7.044;2023-11-19T03:30:27;11.40;99.90
10129;DHT22;5104;50.720;7.044;2023-11-19T03:32:54;11.40;99.90
10129;DHT22;5104;50.720;7.044;2023-11-19T03:35:23;11.50;99.90
10129;DHT22;5104;50.720;7.044;2023-11-19T03:37:51;11.40;99.90
10129;DHT22;5104;50.720;7.044;2023-11-19T03:40:18;11.50;99.90
10129;DHT22;5104;50.720;7.044;2023-11-19T03:42:48;11.40;99.90
10129;DHT22;5104;50.720;7.044;2023-11-19T03:45:15;11.50;99.90
10129;DHT22;5104;50.720;7.044;2023-11-19T03:47:42;11.60;99.90
10129;DHT22;5104;50.720;7.044;2023-11-19T03:50:09;11.60;99.90
10129;DHT22;5104;50.720;7.044;2023-11-19T03:52:37;11.60;99.90
10129;DHT22;5104;50.720;7.044;2023-11-19T03:55:05;11.70;99.90
10129;DHT22;5104;50.720;7.044;2023-11-19T03:57:34;11.80;99.90
10129;DHT22;5104;50.720;7.044;2023-11-19T04:00:01;11.80;99.90
10129;DHT22;5104;50.720;7.044;2023-11-19T04:02:33;11.90;99.90
10129;DHT22;5104;50.720;7.044;2023-11-19T04:05:00;12.00;99.90
10129;DHT22;5104;50.720;7.044;2023-11-19T04:07:28;12.10;99.90
10129;DHT22;5104;50.720;7.044;2023-11-19T04:09:57;12.20;99.90
10129;DHT22;5104;50.720;7.044;2023-11-19T04:12:24;12.20;99.90
10129;DHT22;5104;50.720;7.044;2023-11-19T04:14:50;12.30;99.90
10129;DHT22;5104;50.720;7.044;2023-11-19T04:17:17;12.30;99.90
10129;DHT22;5104;50.720;7.044;2023-11-19T04:19:44;12.30;99.90
10129;DHT22;5104;50.720;7.044;2023-11-19T04:22:11;12.30;99.90
10129;DHT22;5104;50.720;7.044;2023-11-19T04:24:38;12.40;99.90
10129;DHT22;5104;50.720;7.044;2023-11-19T04:27:07;12.40;99.90
10129;DHT22;5104;50.720;7.044;2023-11-19T04:29:34;12.40;99.90
10129;DHT22;5104;50.720;7.044;2023-11-19T04:32:01;12.50;99.90
10129;DHT22;5104;50.720;7.044;2023-11-19T04:34:28;12.50;99.90
10129;DHT22;5104;50.720;7.044;2023-11-19T04:36:55;12.60;99.90
10129;DHT22;5104;50.720;7.044;2023-11-19T04:39:22;12.60;99.90
10129;DHT22;5104;50.720;7.044;2023-11-19T04:41:49;12.50;99.90
10129;DHT22;5104;50.720;7.044;2023-11-19T04:44:19;12.50;99.90
10129;DHT22;5104;50.720;7.044;2023-11-19T04:46:46;12.40;99.90
10129;DHT22;5104;50.720;7.044;2023-11-19T04:49:13;12.40;99.90
10129;DHT22;5104;50.720;7.044;2023-11-19T04:51:43;12.40;99.90
10129;DHT22;5104;50.720;7.044;2023-11-19T04:54:12;12.30;99.90
10129;DHT22;5104;50.720;7.044;2023-11-19T04:56:39;12.30;99.90
10129;DHT22;5104;50.720;7.044;2023-11-19T04:59:06;12.20;99.90
10129;DHT22;5104;50.720;7.044;2023-11-19T05:01:35;12.20;99.90
10129;DHT22;5104;50.720;7.044;2023-11-19T05:04:02;12.20;99.90
10129;DHT22;5104;50.720;7.044;2023-11-19T05:06:30;12.20;99.90
10129;DHT22;5104;50.720;7.044;2023-11-19T05:08:59;12.30;99.90
10129;DHT22;5104;50.720;7.044;2023-11-19T05:11:28;12.30;99.90
10129;DHT22;5104;50.720;7.044;2023-11-19T05:13:55;12.30;99.90
10129;DHT22;5104;50.720;7.044;2023-11-19T05:16:22;12.30;99.90
10129;DHT22;5104;50.720;7.044;2023-11-19T05:18:50;12.30;99.90
10129;DHT22;5104;50.720;7.044;2023-11-19T05:21:17;12.30;99.90
10129;DHT22;5104;50.720;7.044;2023-11-19T05:23:44;12.30;99.90
10129;DHT22;5104;50.720;7.044;2023-11-19T05:26:17;12.10;99.90
10129;DHT22;5104;50.720;7.044;2023-11-19T05:28:45;12.10;99.90
10129;DHT22;5104;50.720;7.044;2023-11-19T05:31:12;12.00;99.90
10129;DHT22;5104;50.720;7.044;2023-11-19T05:33:39;12.00;99.90
10129;DHT22;5104;50.720;7.044;2023-11-19T05:36:08;12.00;99.90
10129;DHT22;5104;50.720;7.044;2023-11-19T05:38:35;12.00;99.90
10129;DHT22;5104;50.720;7.044;2023-11-19T05:41:02;12.00;99.90
10129;DHT22;5104;50.720;7.044;2023-11-19T05:43:30;12.00;99.90
10129;DHT22;5104;50.720;7.044;2023-11-19T05:45:57;11.90;99.90
10129;DHT22;5104;50.720;7.044;2023-11-19T05:48:26;11.90;99.90
10129;DHT22;5104;50.720;7.044;2023-11-19T05:50:53;11.90;99.90
10129;DHT22;5104;50.720;7.044;2023-11-19T05:53:21;11.90;99.90
10129;DHT22;5104;50.720;7.044;2023-11-19T05:55:48;11.90;99.90
10129;DHT22;5104;50.720;7.044;2023-11-19T05:58:23;11.80;99.90
10129;DHT22;5104;50.720;7.044;2023-11-19T06:00:51;11.90;99.90
10129;DHT22;5104;50.720;7.044;2023-11-19T06:03:18;12.10;99.90
10129;DHT22;5104;50.720;7.044;2023-11-19T06:05:45;12.20;99.90
10129;DHT22;5104;50.720;7.044;2023-11-19T06:08:12;12.20;99.90
10129;DHT22;5104;50.720;7.044;2023-11-19T06:10:41;12.30;99.90
10129;DHT22;5104;50.720;7.044;2023-11-19T06:13:09;12.30;99.90
10129;DHT22;5104;50.720;7.044;2023-11-19T06:15:37;12.40;99.90
10129;DHT22;5104;50.720;7.044;2023-11-19T06:18:04;12.40;99.90
10129;DHT22;5104;50.720;7.044;2023-11-19T06:20:32;12.40;99.90
10129;DHT22;5104;50.720;7.044;2023-11-19T06:22:59;12.40;99.90
10129;DHT22;5104;50.720;7.044;2023-11-19T06:25:26;12.40;99.90
10129;DHT22;5104;50.720;7.044;2023-11-19T06:27:54;12.40;99.90
10129;DHT22;5104;50.720;7.044;2023-11-19T06:30:22;12.40;99.90
10129;DHT22;5104;50.720;7.044;2023-11-19T06:32:49;12.40;99.90
10129;DHT22;5104;50.720;7.044;2023-11-19T06:35:17;12.40;99.90
10129;DHT22;5104;50.720;7.044;2023-11-19T06:37:43;12.20;99.90
10129;DHT22;5104;50.720;7.044;2023-11-19T06:40:11;12.10;99.90
10129;DHT22;5104;50.720;7.044;2023-11-19T06:42:38;12.10;99.90
10129;DHT22;5104;50.720;7.044;2023-11-19T06:45:07;12.00;99.90
10129;DHT22;5104;50.720;7.044;2023-11-19T06:47:35;12.00;99.90
10129;DHT22;5104;50.720;7.044;2023-11-19T06:50:01;12.00;99.90
10129;DHT22;5104;50.720;7.044;2023-11-19T06:52:31;11.90;99.90
10129;DHT22;5104;50.720;7.044;2023-11-19T06:54:58;11.90;99.90
10129;DHT22;5104;50.720;7.044;2023-11-19T06:57:25;11.90;99.90
10129;DHT22;5104;50.720;7.044;2023-11-19T06:59:51;11.90;99.90
10129;DHT22;5104;50.720;7.044;2023-11-19T07:02:20;11.90;99.90
10129;DHT22;5104;50.720;7.044;2023-11-19T07:04:47;11.90;99.90
10129;DHT22;5104;50.720;7.044;2023-11-19T07:07:13;11.80;99.90
10129;DHT22;5104;50.720;7.044;2023-11-19T07:09:41;11.90;99.90
10129;DHT22;5104;50.720;7.044;2023-11-19T07:12:08;11.90;99.90
10129;DHT22;5104;50.720;7.044;2023-11-19T07:14:35;11.80;99.90
10129;DHT22;5104;50.720;7.044;2023-11-19T07:17:02;11.80;99.90
10129;DHT22;5104;50.720;7.044;2023-11-19T07:19:30;11.80;99.90
10129;DHT22;5104;50.720;7.044;2023-11-19T07:21:57;11.80;99.90
10129;DHT22;5104;50.720;7.044;2023-11-19T07:24:24;11.70;99.90
10129;DHT22;5104;50.720;7.044;2023-11-19T07:26:53;11.60;99.90
10129;DHT22;5104;50.720;7.044;2023-11-19T07:29:20;11.50;99.90
10129;DHT22;5104;50.720;7.044;2023-11-19T07:31:48;11.60;99.90
10129;DHT22;5104;50.720;7.044;2023-11-19T07:34:16;11.60;99.90
10129;DHT22;5104;50.720;7.044;2023-11-19T07:36:44;11.70;99.90
10129;DHT22;5104;50.720;7.044;2023-11-19T07:39:11;11.80;99.90
10129;DHT22;5104;50.720;7.044;2023-11-19T07:41:38;11.90;99.90
10129;DHT22;5104;50.720;7.044;2023-11-19T07:44:05;12.00;99.90
10129;DHT22;5104;50.720;7.044;2023-11-19T07:46:32;12.10;99.90
10129;DHT22;5104;50.720;7.044;2023-11-19T07:48:59;12.20;99.90
10129;DHT22;5104;50.720;7.044;2023-11-19T07:51:28;12.30;99.90
10129;DHT22;5104;50.720;7.044;2023-11-19T07:53:56;12.40;99.90
10129;DHT22;5104;50.720;7.044;2023-11-19T07:56:23;12.50;99.90
10129;DHT22;5104;50.720;7.044;2023-11-19T07:58:50;12.60;99.90
10129;DHT22;5104;50.720;7.044;2023-11-19T08:01:17;12.80;99.90
10129;DHT22;5104;50.720;7.044;2023-11-19T08:03:44;12.90;99.90
10129;DHT22;5104;50.720;7.044;2023-11-19T08:06:11;13.00;99.90
10129;DHT22;5104;50.720;7.044;2023-11-19T08:08:38;13.10;99.90
10129;DHT22;5104;50.720;7.044;2023-11-19T08:11:07;13.10;19.10
10129;DHT22;5104;50.720;7.044;2023-11-19T08:13:34;13.20;99.90
10129;DHT22;5104;50.720;7.044;2023-11-19T08:16:01;13.30;1.00
10129;DHT22;5104;50.720;7.044;2023-11-19T08:18:27;13.20;1.00
10129;DHT22;5104;50.720;7.044;2023-11-19T08:20:54;13.20;1.00
10129;DHT22;5104;50.720;7.044;2023-11-19T08:23:23;13.10;1.00
10129;DHT22;5104;50.720;7.044;2023-11-19T08:25:51;13.00;1.00
10129;DHT22;5104;50.720;7.044;2023-11-19T08:28:20;13.00;1.00
10129;DHT22;5104;50.720;7.044;2023-11-19T08:30:47;12.90;99.90
10129;DHT22;5104;50.720;7.044;2023-11-19T08:33:14;12.90;1.00
10129;DHT22;5104;50.720;7.044;2023-11-19T08:35:41;12.80;99.90
10129;DHT22;5104;50.720;7.044;2023-11-19T08:38:08;12.80;99.90
10129;DHT22;5104;50.720;7.044;2023-11-19T08:40:35;12.80;99.90
10129;DHT22;5104;50.720;7.044;2023-11-19T08:43:02;12.80;71.30
10129;DHT22;5104;50.720;7.044;2023-11-19T08:45:30;12.80;90.00
10129;DHT22;5104;50.720;7.044;2023-11-19T08:47:57;12.80;1.00
10129;DHT22;5104;50.720;7.044;2023-11-19T08:50:24;12.80;93.80
10129;DHT22;5104;50.720;7.044;2023-11-19T08:52:51;12.80;1.00
10129;DHT22;5104;50.720;7.044;2023-11-19T08:55:18;12.90;1.00
10129;DHT22;5104;50.720;7.044;2023-11-19T08:57:45;12.90;1.00
10129;DHT22;5104;50.720;7.044;2023-11-19T09:00:12;12.90;1.00
10129;DHT22;5104;50.720;7.044;2023-11-19T09:02:42;12.90;1.00
10129;DHT22;5104;50.720;7.044;2023-11-19T09:05:09;12.90;1.00
10129;DHT22;5104;50.720;7.044;2023-11-19T09:07:36;13.00;1.00
10129;DHT22;5104;50.720;7.044;2023-11-19T09:10:04;13.20;1.00
10129;DHT22;5104;50.720;7.044;2023-11-19T09:12:31;13.40;99.90
10129;DHT22;5104;50.720;7.044;2023-11-19T09:14:58;13.40;99.90
10129;DHT22;5104;50.720;7.044;2023-11-19T09:17:25;13.40;99.90
10129;DHT22;5104;50.720;7.044;2023-11-19T09:19:53;13.50;99.90
10129;DHT22;5104;50.720;7.044;2023-11-19T09:22:20;13.70;1.00
10129;DHT22;5104;50.720;7.044;2023-11-19T09:24:47;13.90;1.00
10129;DHT22;5104;50.720;7.044;2023-11-19T09:27:14;13.90;1.00
10129;DHT22;5104;50.720;7.044;2023-11-19T09:29:41;13.80;99.90
10129;DHT22;5104;50.720;7.044;2023-11-19T09:32:08;13.80;1.00
10129;DHT22;5104;50.720;7.044;2023-11-19T09:34:35;13.70;1.00
10129;DHT22;5104;50.720;7.044;2023-11-19T09:37:04;13.70;1.00
10129;DHT22;5104;50.720;7.044;2023-11-19T09:39:30;13.60;1.00
10129;DHT22;5104;50.720;7.044;2023-11-19T09:41:57;13.70;1.00
10129;DHT22;5104;50.720;7.044;2023-11-19T09:44:24;13.70;1.00
10129;DHT22;5104;50.720;7.044;2023-11-19T09:46:52;13.70;1.00
10129;DHT22;5104;50.720;7.044;2023-11-19T09:49:21;13.70;1.00
10129;DHT22;5104;50.720;7.044;2023-11-19T09:51:50;13.70;99.90
10129;DHT22;5104;50.720;7.044;2023-11-19T09:54:19;13.70;1.00
10129;DHT22;5104;50.720;7.044;2023-11-19T09:56:46;13.70;99.90
10129;DHT22;5104;50.720;7.044;2023-11-19T09:59:14;13.70;99.90
10129;DHT22;5104;50.720;7.044;2023-11-19T10:01:41;13.80;99.90
10129;DHT22;5104;50.720;7.044;2023-11-19T10:04:10;13.90;99.90
10129;DHT22;5104;50.720;7.044;2023-11-19T10:06:38;14.00;99.90
10129;DHT22;5104;50.720;7.044;2023-11-19T10:09:05;13.90;99.90
10129;DHT22;5104;50.720;7.044;2023-11-19T10:11:33;14.00;42.80
10129;DHT22;5104;50.720;7.044;2023-11-19T10:14:00;14.00;99.90
10129;DHT22;5104;50.720;7.044;2023-11-19T10:16:30;14.10;99.90
10129;DHT22;5104;50.720;7.044;2023-11-19T10:18:58;14.10;85.60
10129;DHT22;5104;50.720;7.044;2023-11-19T10:21:25;14.10;91.20
10129;DHT22;5104;50.720;7.044;2023-11-19T10:23:54;14.00;99.90
10129;DHT22;5104;50.720;7.044;2023-11-19T10:26:23;14.10;99.90
10129;DHT22;5104;50.720;7.044;2023-11-19T10:28:51;14.10;99.90
10129;DHT22;5104;50.720;7.044;2023-11-19T10:31:19;14.20;99.90
10129;DHT22;5104;50.720;7.044;2023-11-19T10:33:50;14.30;46.10
10129;DHT22;5104;50.720;7.044;2023-11-19T10:36:17;14.20;1.00
10129;DHT22;5104;50.720;7.044;2023-11-19T10:38:52;14.30;1.00
10129;DHT22;5104;50.720;7.044;2023-11-19T10:41:27;14.40;1.00
10129;DHT22;5104;50.720;7.044;2023-11-19T10:43:55;14.40;1.00
10129;DHT22;5104;50.720;7.044;2023-11-19T10:46:22;14.50;1.00
10129;DHT22;5104;50.720;7.044;2023-11-19T10:48:49;14.50;1.00
10129;DHT22;5104;50.720;7.044;2023-11-19T10:51:19;14.60;1.00
10129;DHT22;5104;50.720;7.044;2023-11-19T10:53:49;14.70;1.00
10129;DHT22;5104;50.720;7.044;2023-11-19T10:56:17;14.80;1.00
10129;DHT22;5104;50.720;7.044;2023-11-19T10:58:49;14.80;1.00
10129;DHT22;5104;50.720;7.044;2023-11-19T11:01:20;14.70;1.00
10129;DHT22;5104;50.720;7.044;2023-11-19T11:03:51;14.70;1.00
10129;DHT22;5104;50.720;7.044;2023-11-19T11:06:20;14.90;99.90
10129;DHT22;5104;50.720;7.044;2023-11-19T11:08:49;15.00;99.90
10129;DHT22;5104;50.720;7.044;2023-11-19T11:11:17;15.10;99.90
10129;DHT22;5104;50.720;7.044;2023-11-19T11:13:47;15.00;99.90
10129;DHT22;5104;50.720;7.044;2023-11-19T11:16:19;15.00;99.90
10129;DHT22;5104;50.720;7.044;2023-11-19T11:18:47;15.00;99.90
10129;DHT22;5104;50.720;7.044;2023-11-19T11:21:17;15.00;99.90
10129;DHT22;5104;50.720;7.044;2023-11-19T11:23:59;15.10;99.90
10129;DHT22;5104;50.720;7.044;2023-11-19T11:29:28;15.00;99.90
10129;DHT22;5104;50.720;7.044;2023-11-19T11:32:08;15.10;99.90
10129;DHT22;5104;50.720;7.044;2023-11-19T11:34:58;15.10;99.90
10129;DHT22;5104;50.720;7.044;2023-11-19T11:37:32;14.90;99.90
10129;DHT22;5104;50.720;7.044;2023-11-19T11:40:01;14.80;99.90
10129;DHT22;5104;50.720;7.044;2023-11-19T11:42:34;14.80;99.90
10129;DHT22;5104;50.720;7.044;2023-11-19T11:45:03;14.70;99.90
10129;DHT22;5104;50.720;7.044;2023-11-19T11:48:09;14.70;99.90
10129;DHT22;5104;50.720;7.044;2023-11-19T11:50:51;14.60;99.90
10129;DHT22;5104;50.720;7.044;2023-11-19T11:53:20;14.60;1.00
10129;DHT22;5104;50.720;7.044;2023-11-19T11:56:00;14.50;1.00
10129;DHT22;5104;50.720;7.044;2023-11-19T11:58:32;14.40;99.90
10129;DHT22;5104;50.720;7.044;2023-11-19T12:01:02;14.30;99.90
10129;DHT22;5104;50.720;7.044;2023-11-19T12:03:33;14.30;99.90
10129;DHT22;5104;50.720;7.044;2023-11-19T12:06:00;14.30;99.90
10129;DHT22;5104;50.720;7.044;2023-11-19T12:08:28;14.20;99.90
10129;DHT22;5104;50.720;7.044;2023-11-19T12:10:57;14.00;99.90
10129;DHT22;5104;50.720;7.044;2023-11-19T12:13:29;13.90;1.00
10129;DHT22;5104;50.720;7.044;2023-11-19T12:16:09;13.70;1.00
10129;DHT22;5104;50.720;7.044;2023-11-19T12:18:39;13.70;1.00
10129;DHT22;5104;50.720;7.044;2023-11-19T12:21:07;13.60;53.20
10129;DHT22;5104;50.720;7.044;2023-11-19T12:23:35;13.60;41.40
10129;DHT22;5104;50.720;7.044;2023-11-19T12:26:02;13.70;3.40
10129;DHT22;5104;50.720;7.044;2023-11-19T12:28:29;13.80;1.00
10129;DHT22;5104;50.720;7.044;2023-11-19T12:31:07;13.90;1.00
10129;DHT22;5104;50.720;7.044;2023-11-19T12:33:37;14.00;1.00
10129;DHT22;5104;50.720;7.044;2023-11-19T12:36:05;14.00;1.00
10129;DHT22;5104;50.720;7.044;2023-11-19T12:38:33;14.00;1.00
10129;DHT22;5104;50.720;7.044;2023-11-19T12:41:03;14.10;99.90
10129;DHT22;5104;50.720;7.044;2023-11-19T12:43:30;14.20;99.90
10129;DHT22;5104;50.720;7.044;2023-11-19T12:45:57;14.30;99.90
10129;DHT22;5104;50.720;7.044;2023-11-19T12:48:24;14.40;99.90
10129;DHT22;5104;50.720;7.044;2023-11-19T12:50:53;14.70;19.60
10129;DHT22;5104;50.720;7.044;2023-11-19T12:53:21;14.80;1.00
10129;DHT22;5104;50.720;7.044;2023-11-19T12:55:49;14.70;1.00
10129;DHT22;5104;50.720;7.044;2023-11-19T12:58:28;14.70;1.00
10129;DHT22;5104;50.720;7.044;2023-11-19T13:00:59;14.60;1.00
10129;DHT22;5104;50.720;7.044;2023-11-19T13:03:30;14.40;79.70
10129;DHT22;5104;50.720;7.044;2023-11-19T13:06:03;14.30;99.90
10129;DHT22;5104;50.720;7.044;2023-11-19T13:08:36;14.00;99.90
10129;DHT22;5104;50.720;7.044;2023-11-19T13:11:05;13.80;3.20
10129;DHT22;5104;50.720;7.044;2023-11-19T13:13:33;13.70;99.90
10129;DHT22;5104;50.720;7.044;2023-11-19T13:16:04;13.50;1.00
10129;DHT22;5104;50.720;7.044;2023-11-19T13:18:32;13.40;99.90
10129;DHT22;5104;50.720;7.044;2023-11-19T13:20:59;13.30;99.90
10129;DHT22;5104;50.720;7.044;2023-11-19T13:23:27;13.10;99.90
10129;DHT22;5104;50.720;7.044;2023-11-19T13:25:54;13.10;1.00
10129;DHT22;5104;50.720;7.044;2023-11-19T13:28:21;13.00;1.00
10129;DHT22;5104;50.720;7.044;2023-11-19T13:30:48;13.10;99.90
10129;DHT22;5104;50.720;7.044;2023-11-19T13:33:17;13.10;99.90
10129;DHT22;5104;50.720;7.044;2023-11-19T13:35:44;13.00;1.00
10129;DHT22;5104;50.720;7.044;2023-11-19T13:38:10;13.10;1.00
10129;DHT22;5104;50.720;7.044;2023-11-19T13:40:39;13.10;1.00
10129;DHT22;5104;50.720;7.044;2023-11-19T13:43:06;13.20;1.00
10129;DHT22;5104;50.720;7.044;2023-11-19T13:45:33;13.20;45.00
10129;DHT22;5104;50.720;7.044;2023-11-19T13:48:00;13.30;99.90
10129;DHT22;5104;50.720;7.044;2023-11-19T13:50:26;13.50;1.00
10129;DHT22;5104;50.720;7.044;2023-11-19T13:52:54;13.70;98.60
10129;DHT22;5104;50.720;7.044;2023-11-19T13:55:21;13.70;1.00
10129;DHT22;5104;50.720;7.044;2023-11-19T13:57:50;13.70;1.00
10129;DHT22;5104;50.720;7.044;2023-11-19T14:00:17;13.70;1.00
10129;DHT22;5104;50.720;7.044;2023-11-19T14:02:45;13.70;1.00
10129;DHT22;5104;50.720;7.044;2023-11-19T14:05:13;13.60;1.00
10129;DHT22;5104;50.720;7.044;2023-11-19T14:07:41;13.70;99.90
10129;DHT22;5104;50.720;7.044;2023-11-19T14:10:09;13.60;99.90
10129;DHT22;5104;50.720;7.044;2023-11-19T14:12:37;13.70;99.90
10129;DHT22;5104;50.720;7.044;2023-11-19T14:15:07;13.80;99.90
10129;DHT22;5104;50.720;7.044;2023-11-19T14:17:35;13.90;99.90
10129;DHT22;5104;50.720;7.044;2023-11-19T14:20:03;14.00;99.90
10129;DHT22;5104;50.720;7.044;2023-11-19T14:22:30;14.00;99.90
10129;DHT22;5104;50.720;7.044;2023-11-19T14:24:57;14.00;1.00
10129;DHT22;5104;50.720;7.044;2023-11-19T14:27:25;14.00;1.00
10129;DHT22;5104;50.720;7.044;2023-11-19T14:29:52;14.00;99.90
10129;DHT22;5104;50.720;7.044;2023-11-19T14:32:21;14.00;1.00
10129;DHT22;5104;50.720;7.044;2023-11-19T14:34:48;14.00;1.00
10129;DHT22;5104;50.720;7.044;2023-11-19T14:37:15;13.90;1.00
10129;DHT22;5104;50.720;7.044;2023-11-19T14:39:42;13.90;1.00
10129;DHT22;5104;50.720;7.044;2023-11-19T14:42:09;13.80;1.00
10129;DHT22;5104;50.720;7.044;2023-11-19T14:44:36;13.70;1.00
10129;DHT22;5104;50.720;7.044;2023-11-19T14:47:04;13.60;1.00
10129;DHT22;5104;50.720;7.044;2023-11-19T14:49:34;13.60;1.00
10129;DHT22;5104;50.720;7.044;2023-11-19T14:52:02;13.60;2.80
10129;DHT22;5104;50.720;7.044;2023-11-19T14:54:29;13.70;1.00
10129;DHT22;5104;50.720;7.044;2023-11-19T14:56:56;13.70;1.00
10129;DHT22;5104;50.720;7.044;2023-11-19T14:59:25;13.70;44.90
10129;DHT22;5104;50.720;7.044;2023-11-19T15:01:51;13.60;99.90
10129;DHT22;5104;50.720;7.044;2023-11-19T15:04:18;13.60;99.90
10129;DHT22;5104;50.720;7.044;2023-11-19T15:06:47;13.70;99.90
10129;DHT22;5104;50.720;7.044;2023-11-19T15:09:13;13.60;99.90
10129;DHT22;5104;50.720;7.044;2023-11-19T15:11:43;13.50;1.00
10129;DHT22;5104;50.720;7.044;2023-11-19T15:14:11;13.40;1.00
10129;DHT22;5104;50.720;7.044;2023-11-19T15:16:40;13.40;1.00
10129;DHT22;5104;50.720;7.044;2023-11-19T15:19:07;13.40;1.00
10129;DHT22;5104;50.720;7.044;2023-11-19T15:21:35;13.40;1.00
10129;DHT22;5104;50.720;7.044;2023-11-19T15:24:03;13.40;1.00
10129;DHT22;5104;50.720;7.044;2023-11-19T15:26:33;13.40;1.00
10129;DHT22;5104;50.720;7.044;2023-11-19T15:29:00;13.30;1.00
10129;DHT22;5104;50.720;7.044;2023-11-19T15:31:28;13.20;1.00
10129;DHT22;5104;50.720;7.044;2023-11-19T15:33:55;13.10;37.90
10129;DHT22;5104;50.720;7.044;2023-11-19T15:36:22;13.10;99.90
10129;DHT22;5104;50.720;7.044;2023-11-19T15:38:49;13.00;1.00
10129;DHT22;5104;50.720;7.044;2023-11-19T15:41:17;12.90;1.00
10129;DHT22;5104;50.720;7.044;2023-11-19T15:43:44;12.90;1.00
10129;DHT22;5104;50.720;7.044;2023-11-19T15:46:11;12.80;1.00
10129;DHT22;5104;50.720;7.044;2023-11-19T15:48:39;12.80;99.90
10129;DHT22;5104;50.720;7.044;2023-11-19T15:51:06;12.80;1.00
10129;DHT22;5104;50.720;7.044;2023-11-19T15:53:34;12.80;1.00
10129;DHT22;5104;50.720;7.044;2023-11-19T15:56:01;12.80;1.00
10129;DHT22;5104;50.720;7.044;2023-11-19T15:58:30;12.80;1.00